Wetterdaten: Woche 15.05.17 - 21.05.17 (KW20)
Datum Zeit Temp. A. Pool Temp. Feuchte A. Luftdruck Regen Wind Richtung Sonnenschein ET UV Solar Taupunkt Windchill Windben Empfang
15.05.2017 00:00 15,0 C 20,0 C 85 % 1023,3 hPa 0,0 l/m 2,3 km/h (1 Bft) S 0,00 h 0,000 mm 0,0 UV-I 0 W/m 12,5 C 15,0 C 4,4 km/h (1 Bft) 97,20 %
15.05.2017 01:00 14,6 C 20,0 C 87 % 1023,5 hPa 0,0 l/m 5,0 km/h (1 Bft) SW 0,00 h 0,000 mm 0,0 UV-I 0 W/m 12,5 C 14,5 C 8,0 km/h (2 Bft) 98,47 %
15.05.2017 02:00 14,2 C 20,0 C 89 % 1023,7 hPa 0,0 l/m 6,2 km/h (2 Bft) SW 0,00 h 0,000 mm 0,0 UV-I 0 W/m 12,4 C 13,6 C 9,1 km/h (2 Bft) 99,26 %
15.05.2017 03:00 14,1 C 19,9 C 87 % 1023,9 hPa 0,0 l/m 9,1 km/h (2 Bft) W-SW 0,00 h 0,000 mm 0,0 UV-I 0 W/m 12,1 C 12,6 C 13,9 km/h (3 Bft) 97,48 %
15.05.2017 04:00 13,7 C 19,4 C 86 % 1024,4 hPa 0,0 l/m 11,5 km/h (2 Bft) W-SW 0,00 h 0,025 mm 0,0 UV-I 0 W/m 11,3 C 11,0 C 17,3 km/h (3 Bft) 97,71 %
15.05.2017 05:00 13,6 C 19,4 C 85 % 1024,7 hPa 0,0 l/m 9,6 km/h (2 Bft) W-SW 0,00 h 0,026 mm 0,0 UV-I 11 W/m 11,1 C 11,9 C 15,1 km/h (3 Bft) 97,91 %
15.05.2017 06:00 13,7 C 19,4 C 85 % 1025,5 hPa 0,0 l/m 7,2 km/h (2 Bft) SW 0,00 h 0,025 mm 0,0 UV-I 47 W/m 11,3 C 13,2 C 11,8 km/h (2 Bft) 98,48 %
15.05.2017 07:00 13,9 C 19,4 C 84 % 1026,1 hPa 0,0 l/m 9,4 km/h (2 Bft) W-SW 0,00 h 0,051 mm 0,4 UV-I 96 W/m 11,3 C 12,3 C 14,6 km/h (3 Bft) 95,93 %
15.05.2017 08:00 14,8 C 19,4 C 82 % 1026,5 hPa 0,0 l/m 10,4 km/h (2 Bft) W-SW 0,40 h 0,076 mm 0,9 UV-I 263 W/m 11,8 C 12,8 C 16,1 km/h (3 Bft) 96,07 %
15.05.2017 09:00 15,8 C 19,4 C 79 % 1026,9 hPa 0,0 l/m 7,6 km/h (2 Bft) W-SW 0,50 h 0,153 mm 1,6 UV-I 375 W/m 12,2 C 15,1 C 13,6 km/h (3 Bft) 97,24 %
15.05.2017 10:00 17,3 C 19,7 C 73 % 1027,1 hPa 0,0 l/m 7,6 km/h (2 Bft) W 0,93 h 0,228 mm 3,2 UV-I 617 W/m 12,5 C 16,5 C 13,7 km/h (3 Bft) 97,58 %
15.05.2017 11:00 18,4 C 20,0 C 66 % 1027,1 hPa 0,0 l/m 9,9 km/h (2 Bft) W-SW 0,90 h 0,381 mm 4,4 UV-I 779 W/m 11,9 C 16,9 C 16,7 km/h (3 Bft) 95,34 %
15.05.2017 12:00 19,1 C 20,0 C 62 % 1026,7 hPa 0,0 l/m 10,3 km/h (2 Bft) W-SW 0,97 h 0,483 mm 4,6 UV-I 750 W/m 11,6 C 17,6 C 16,5 km/h (3 Bft) 95,45 %
15.05.2017 13:00 20,2 C 20,6 C 56 % 1026,3 hPa 0,0 l/m 8,8 km/h (2 Bft) W-SW 0,75 h 0,482 mm 4,8 UV-I 723 W/m 11,2 C 19,3 C 15,2 km/h (3 Bft) 98,15 %
15.05.2017 14:00 21,0 C 20,7 C 53 % 1026,1 hPa 0,0 l/m 8,9 km/h (2 Bft) W-SW 0,77 h 0,483 mm 3,9 UV-I 793 W/m 11,1 C 20,0 C 15,3 km/h (3 Bft) 97,60 %
15.05.2017 15:00 18,0 C 21,1 C 65 % 1026,3 hPa 0,0 l/m 9,5 km/h (2 Bft) O-NO 0,07 h 0,483 mm 1,5 UV-I 222 W/m 11,3 C 16,7 C 15,4 km/h (3 Bft) 97,67 %
15.05.2017 16:00 16,4 C 20,8 C 76 % 1026,5 hPa 7,2 l/m 6,4 km/h (2 Bft) N-NO 0,03 h 0,203 mm 1,1 UV-I 89 W/m 11,9 C 15,8 C 10,7 km/h (2 Bft) 95,73 %
15.05.2017 17:00 14,3 C 20,6 C 90 % 1027,0 hPa 2,0 l/m 4,5 km/h (1 Bft) O-NO 0,00 h 0,076 mm 0,5 UV-I 90 W/m 12,7 C 14,1 C 7,7 km/h (2 Bft) 98,39 %
15.05.2017 18:00 14,7 C 20,6 C 91 % 1026,9 hPa 1,2 l/m 3,4 km/h (1 Bft) SO 0,47 h 0,051 mm 0,0 UV-I 155 W/m 13,3 C 14,7 C 5,6 km/h (1 Bft) 98,05 %
15.05.2017 19:00 15,7 C 20,6 C 88 % 1026,9 hPa 0,0 l/m 4,7 km/h (1 Bft) S-SW 0,53 h 0,076 mm 0,0 UV-I 91 W/m 13,8 C 15,7 C 7,8 km/h (2 Bft) 97,36 %
15.05.2017 20:00 15,2 C 20,6 C 91 % 1027,6 hPa 0,0 l/m 2,0 km/h (1 Bft) S 0,03 h 0,051 mm 0,0 UV-I 13 W/m 13,7 C 15,2 C 3,9 km/h (1 Bft) 94,70 %
15.05.2017 21:00 14,1 C 20,6 C 92 % 1028,2 hPa 0,0 l/m 3,3 km/h (1 Bft) S-SW 0,00 h 0,000 mm 0,0 UV-I 0 W/m 12,9 C 14,1 C 6,1 km/h (2 Bft) 98,57 %
15.05.2017 22:00 13,7 C 20,6 C 91 % 1028,4 hPa 0,0 l/m 5,7 km/h (1 Bft) S-SW 0,00 h 0,000 mm 0,0 UV-I 0 W/m 12,2 C 13,6 C 8,2 km/h (2 Bft) 96,54 %
15.05.2017 23:00 13,1 C 20,3 C 92 % 1028,7 hPa 0,0 l/m 4,2 km/h (1 Bft) S-SW 0,00 h 0,000 mm 0,0 UV-I 0 W/m 11,7 C 13,1 C 6,2 km/h (2 Bft) 97,90 %
16.05.2017 00:00 12,3 C 20,0 C 92 % 1028,8 hPa 0,0 l/m 3,7 km/h (1 Bft) S-SW 0,00 h 0,000 mm 0,0 UV-I 0 W/m 11,1 C 12,2 C 6,0 km/h (2 Bft) 95,67 %
16.05.2017 01:00 11,7 C 20,0 C 93 % 1028,8 hPa 0,0 l/m 3,2 km/h (1 Bft) S-SW 0,00 h 0,000 mm 0,0 UV-I 0 W/m 10,6 C 11,7 C 5,2 km/h (1 Bft) 98,20 %
16.05.2017 02:00 11,7 C 20,0 C 92 % 1028,7 hPa 0,0 l/m 2,6 km/h (1 Bft) S-SW 0,00 h 0,000 mm 0,0 UV-I 0 W/m 10,5 C 11,7 C 5,1 km/h (1 Bft) 97,58 %
16.05.2017 03:00 11,7 C 20,0 C 93 % 1028,7 hPa 0,0 l/m 5,9 km/h (2 Bft) S-SW 0,00 h 0,000 mm 0,0 UV-I 0 W/m 10,5 C 11,5 C 8,7 km/h (2 Bft) 96,62 %
16.05.2017 04:00 11,6 C 19,7 C 92 % 1028,6 hPa 0,0 l/m 4,0 km/h (1 Bft) S-SW 0,00 h 0,000 mm 0,0 UV-I 0 W/m 10,2 C 11,6 C 6,5 km/h (2 Bft) 96,24 %
16.05.2017 05:00 11,1 C 19,4 C 92 % 1028,6 hPa 0,0 l/m 3,5 km/h (1 Bft) S-SW 0,20 h 0,000 mm 0,0 UV-I 16 W/m 9,9 C 11,1 C 5,7 km/h (1 Bft) 98,02 %
16.05.2017 06:00 10,9 C 19,4 C 93 % 1028,8 hPa 0,0 l/m 2,7 km/h (1 Bft) S-SW 0,00 h 0,000 mm 0,0 UV-I 61 W/m 9,8 C 10,9 C 4,6 km/h (1 Bft) 97,42 %
16.05.2017 07:00 12,4 C 19,4 C 90 % 1029,0 hPa 0,0 l/m 2,4 km/h (1 Bft) SW 0,83 h 0,025 mm 0,6 UV-I 261 W/m 10,7 C 12,4 C 4,0 km/h (1 Bft) 95,38 %
16.05.2017 08:00 14,6 C 19,6 C 83 % 1029,2 hPa 0,0 l/m 2,5 km/h (1 Bft) SW 1,00 h 0,127 mm 1,3 UV-I 437 W/m 11,7 C 14,6 C 4,4 km/h (1 Bft) 97,43 %
16.05.2017 09:00 16,3 C 20,0 C 78 % 1029,2 hPa 0,0 l/m 1,8 km/h (1 Bft) W-NW 1,00 h 0,229 mm 2,4 UV-I 587 W/m 12,5 C 16,3 C 4,1 km/h (1 Bft) 99,16 %
16.05.2017 10:00 17,6 C 20,0 C 72 % 1029,0 hPa 0,0 l/m 2,5 km/h (1 Bft) W 0,93 h 0,330 mm 3,7 UV-I 713 W/m 12,5 C 17,6 C 5,3 km/h (1 Bft) 96,75 %
16.05.2017 11:00 18,8 C 20,1 C 66 % 1028,8 hPa 0,0 l/m 2,9 km/h (1 Bft) SW 1,00 h 0,407 mm 4,9 UV-I 829 W/m 12,2 C 18,8 C 5,9 km/h (2 Bft) 96,57 %
16.05.2017 12:00 19,5 C 20,6 C 63 % 1028,3 hPa 0,0 l/m 2,2 km/h (1 Bft) W 0,67 h 0,482 mm 4,6 UV-I 630 W/m 12,3 C 19,5 C 5,0 km/h (1 Bft) 95,96 %
16.05.2017 13:00 20,4 C 20,8 C 57 % 1027,8 hPa 0,0 l/m 2,9 km/h (1 Bft) NO 0,83 h 0,330 mm 5,5 UV-I 826 W/m 11,6 C 20,4 C 5,9 km/h (2 Bft) 98,16 %
16.05.2017 14:00 21,4 C 21,1 C 56 % 1027,2 hPa 0,0 l/m 3,0 km/h (1 Bft) N-NW 0,97 h 0,508 mm 4,8 UV-I 761 W/m 12,2 C 21,3 C 6,0 km/h (2 Bft) 95,75 %
16.05.2017 15:00 21,8 C 21,5 C 55 % 1026,7 hPa 0,0 l/m 3,4 km/h (1 Bft) NW 1,00 h 0,483 mm 3,9 UV-I 732 W/m 12,2 C 21,8 C 7,3 km/h (2 Bft) 95,93 %
16.05.2017 16:00 22,1 C 21,7 C 50 % 1026,2 hPa 0,0 l/m 2,6 km/h (1 Bft) N-NO 1,00 h 0,457 mm 2,6 UV-I 580 W/m 11,1 C 22,1 C 5,8 km/h (2 Bft) 96,66 %
16.05.2017 17:00 22,1 C 21,9 C 50 % 1025,6 hPa 0,0 l/m 2,6 km/h (1 Bft) NW 1,02 h 0,356 mm 1,4 UV-I 421 W/m 11,1 C 22,1 C 5,7 km/h (1 Bft) 98,37 %
16.05.2017 18:00 21,6 C 22,2 C 51 % 1025,3 hPa 0,0 l/m 3,0 km/h (1 Bft) NO 0,98 h 0,279 mm 0,7 UV-I 243 W/m 10,9 C 21,6 C 5,4 km/h (1 Bft) 97,44 %
16.05.2017 19:00 20,8 C 21,9 C 53 % 1025,3 hPa 0,0 l/m 0,9 km/h (0 Bft) NO 0,63 h 0,178 mm 0,0 UV-I 91 W/m 10,7 C 20,8 C 2,6 km/h (1 Bft) 98,49 %
16.05.2017 20:00 17,6 C 21,7 C 68 % 1025,5 hPa 0,0 l/m 0,3 km/h (0 Bft) NO 0,47 h 0,076 mm 0,0 UV-I 17 W/m 11,6 C 17,6 C 0,9 km/h (0 Bft) 95,17 %
16.05.2017 21:00 15,6 C 21,7 C 75 % 1025,7 hPa 0,0 l/m 0,9 km/h (0 Bft) NO 0,00 h 0,026 mm 0,0 UV-I 0 W/m 11,2 C 15,6 C 1,9 km/h (1 Bft) 97,33 %
16.05.2017 22:00 14,5 C 21,7 C 80 % 1025,9 hPa 0,0 l/m 0,9 km/h (0 Bft) N-NO 0,00 h 0,000 mm 0,0 UV-I 0 W/m 11,0 C 14,5 C 2,2 km/h (1 Bft) 95,65 %
16.05.2017 23:00 13,8 C 21,5 C 82 % 1026,1 hPa 0,0 l/m 2,0 km/h (1 Bft) O-SO 0,00 h 0,000 mm 0,0 UV-I 0 W/m 10,7 C 13,8 C 3,7 km/h (1 Bft) 98,03 %
17.05.2017 00:00 13,9 C 21,1 C 82 % 1026,3 hPa 0,0 l/m 1,1 km/h (1 Bft) O-SO 0,00 h 0,000 mm 0,0 UV-I 0 W/m 10,9 C 13,9 C 2,7 km/h (1 Bft) 95,46 %
17.05.2017 01:00 14,1 C 21,1 C 84 % 1026,0 hPa 0,0 l/m 1,1 km/h (0 Bft) O-SO 0,00 h 0,000 mm 0,0 UV-I 0 W/m 11,5 C 14,1 C 2,1 km/h (1 Bft) 98,19 %
17.05.2017 02:00 13,9 C 21,1 C 85 % 1025,6 hPa 0,0 l/m 1,2 km/h (1 Bft) O-SO 0,00 h 0,000 mm 0,0 UV-I 0 W/m 11,5 C 13,9 C 2,1 km/h (1 Bft) 97,03 %
17.05.2017 03:00 13,6 C 21,1 C 87 % 1025,2 hPa 0,0 l/m 0,4 km/h (0 Bft) O-SO 0,00 h 0,000 mm 0,0 UV-I 0 W/m 11,6 C 13,6 C 1,1 km/h (0 Bft) 97,18 %
17.05.2017 04:00 12,4 C 21,1 C 90 % 1024,8 hPa 0,0 l/m 0,7 km/h (0 Bft) O-SO 0,00 h 0,000 mm 0,0 UV-I 0 W/m 10,9 C 12,4 C 1,8 km/h (1 Bft) 96,05 %
17.05.2017 05:00 11,6 C 20,8 C 91 % 1024,6 hPa 0,0 l/m 0,1 km/h (0 Bft) N 0,07 h 0,000 mm 0,0 UV-I 14 W/m 10,2 C 11,6 C 0,4 km/h (0 Bft) 98,50 %
17.05.2017 06:00 11,8 C 20,6 C 92 % 1024,5 hPa 0,0 l/m 0,3 km/h (0 Bft) O-SO 0,73 h 0,000 mm 0,0 UV-I 112 W/m 10,5 C 11,8 C 0,9 km/h (0 Bft) 95,60 %
17.05.2017 07:00 14,5 C 20,6 C 85 % 1024,5 hPa 0,0 l/m 5,2 km/h (1 Bft) O-NO 1,00 h 0,051 mm 0,6 UV-I 272 W/m 11,9 C 13,8 C 8,9 km/h (2 Bft) 96,15 %
17.05.2017 08:00 16,0 C 20,7 C 77 % 1024,2 hPa 0,0 l/m 10,8 km/h (2 Bft) O-NO 1,00 h 0,152 mm 1,4 UV-I 445 W/m 12,0 C 14,0 C 15,6 km/h (3 Bft) 96,91 %
17.05.2017 09:00 17,7 C 21,1 C 74 % 1023,8 hPa 0,0 l/m 9,8 km/h (2 Bft) O-NO 1,00 h 0,280 mm 2,6 UV-I 603 W/m 13,0 C 16,3 C 15,4 km/h (3 Bft) 97,10 %
17.05.2017 10:00 19,3 C 21,1 C 69 % 1023,4 hPa 0,0 l/m 9,5 km/h (2 Bft) O-NO 1,00 h 0,355 mm 4,1 UV-I 737 W/m 13,5 C 18,1 C 15,1 km/h (3 Bft) 94,66 %
17.05.2017 11:00 20,8 C 21,4 C 61 % 1022,7 hPa 0,0 l/m 10,8 km/h (2 Bft) NO 1,00 h 0,457 mm 5,3 UV-I 831 W/m 12,9 C 19,3 C 16,6 km/h (3 Bft) 97,35 %
17.05.2017 12:00 21,6 C 21,7 C 54 % 1022,1 hPa 0,0 l/m 12,8 km/h (3 Bft) NO 1,00 h 0,534 mm 6,1 UV-I 882 W/m 12,0 C 19,7 C 20,5 km/h (4 Bft) 96,10 %
17.05.2017 13:00 22,3 C 22,1 C 49 % 1021,5 hPa 0,0 l/m 15,3 km/h (3 Bft) NO 1,00 h 0,609 mm 6,3 UV-I 884 W/m 11,1 C 20,0 C 22,1 km/h (4 Bft) 97,72 %
17.05.2017 14:00 22,9 C 22,2 C 48 % 1020,8 hPa 0,0 l/m 17,4 km/h (3 Bft) NO 1,00 h 0,635 mm 5,5 UV-I 834 W/m 11,2 C 20,4 C 25,6 km/h (4 Bft) 95,03 %
17.05.2017 15:00 23,0 C 22,6 C 48 % 1019,9 hPa 0,0 l/m 17,5 km/h (3 Bft) NO 1,00 h 0,635 mm 4,2 UV-I 734 W/m 11,5 C 20,5 C 25,7 km/h (4 Bft) 97,71 %
17.05.2017 16:00 22,8 C 22,8 C 48 % 1019,3 hPa 0,0 l/m 18,5 km/h (3 Bft) NO 1,00 h 0,585 mm 2,7 UV-I 594 W/m 11,1 C 20,0 C 27,0 km/h (4 Bft) 96,23 %
17.05.2017 17:00 22,5 C 22,8 C 50 % 1018,5 hPa 0,0 l/m 18,7 km/h (3 Bft) O-NO 1,00 h 0,508 mm 1,5 UV-I 429 W/m 11,4 C 19,6 C 26,8 km/h (4 Bft) 97,36 %
17.05.2017 18:00 22,0 C 22,8 C 52 % 1017,9 hPa 0,0 l/m 17,2 km/h (3 Bft) O-NO 1,00 h 0,406 mm 0,7 UV-I 253 W/m 11,7 C 19,2 C 24,0 km/h (4 Bft) 95,07 %
17.05.2017 19:00 20,8 C 22,8 C 54 % 1017,3 hPa 0,0 l/m 17,0 km/h (3 Bft) O-NO 0,95 h 0,279 mm 0,0 UV-I 103 W/m 11,3 C 17,9 C 24,6 km/h (4 Bft) 96,02 %
17.05.2017 20:00 19,1 C 22,3 C 59 % 1017,1 hPa 0,0 l/m 13,8 km/h (3 Bft) O-NO 0,40 h 0,178 mm 0,0 UV-I 18 W/m 10,8 C 16,6 C 19,7 km/h (3 Bft) 97,00 %
17.05.2017 21:00 17,6 C 22,2 C 63 % 1016,8 hPa 0,0 l/m 11,8 km/h (2 Bft) O-NO 0,00 h 0,102 mm 0,0 UV-I 0 W/m 10,4 C 15,4 C 17,2 km/h (3 Bft) 98,37 %
17.05.2017 22:00 16,5 C 22,2 C 66 % 1016,2 hPa 0,0 l/m 8,6 km/h (2 Bft) O-NO 0,00 h 0,076 mm 0,0 UV-I 0 W/m 10,2 C 15,4 C 13,8 km/h (3 Bft) 96,79 %
17.05.2017 23:00 15,5 C 21,8 C 69 % 1015,6 hPa 0,0 l/m 9,8 km/h (2 Bft) O-NO 0,00 h 0,051 mm 0,0 UV-I 0 W/m 9,9 C 13,8 C 15,3 km/h (3 Bft) 96,43 %
18.05.2017 00:00 14,9 C 21,7 C 70 % 1015,2 hPa 0,0 l/m 10,4 km/h (2 Bft) O-NO 0,00 h 0,000 mm 0,0 UV-I 0 W/m 9,5 C 12,9 C 15,5 km/h (3 Bft) 96,98 %
18.05.2017 01:00 13,8 C 21,7 C 74 % 1014,7 hPa 0,0 l/m 6,6 km/h (2 Bft) O-NO 0,00 h 0,051 mm 0,0 UV-I 0 W/m 9,3 C 13,2 C 9,8 km/h (2 Bft) 98,12 %
18.05.2017 02:00 13,4 C 21,1 C 76 % 1014,2 hPa 0,0 l/m 6,1 km/h (2 Bft) O-NO 0,00 h 0,025 mm 0,0 UV-I 0 W/m 9,3 C 13,1 C 8,6 km/h (2 Bft) 95,67 %
18.05.2017 03:00 12,7 C 21,1 C 79 % 1013,6 hPa 0,0 l/m 3,0 km/h (1 Bft) O-NO 0,00 h 0,026 mm 0,0 UV-I 0 W/m 9,2 C 12,7 C 4,6 km/h (1 Bft) 96,75 %
18.05.2017 04:00 11,1 C 21,1 C 86 % 1013,4 hPa 0,0 l/m 0,3 km/h (0 Bft) O-NO 0,00 h 0,000 mm 0,0 UV-I 0 W/m 8,9 C 11,1 C 0,9 km/h (0 Bft) 96,31 %
18.05.2017 05:00 10,5 C 21,1 C 88 % 1013,2 hPa 0,0 l/m 0,8 km/h (0 Bft) O-NO 0,37 h 0,000 mm 0,0 UV-I 20 W/m 8,7 C 10,5 C 1,9 km/h (1 Bft) 98,57 %
18.05.2017 06:00 11,3 C 21,0 C 87 % 1013,1 hPa 0,0 l/m 0,1 km/h (0 Bft) O-NO 0,73 h 0,000 mm 0,0 UV-I 110 W/m 9,3 C 11,3 C 0,5 km/h (0 Bft) 93,65 %
18.05.2017 07:00 14,2 C 21,0 C 76 % 1013,2 hPa 0,0 l/m 3,3 km/h (1 Bft) O-NO 1,00 h 0,050 mm 0,7 UV-I 280 W/m 10,0 C 14,2 C 5,4 km/h (1 Bft) 97,53 %
18.05.2017 08:00 16,2 C 21,1 C 72 % 1013,2 hPa 0,0 l/m 4,6 km/h (1 Bft) NO 1,00 h 0,153 mm 1,4 UV-I 452 W/m 11,1 C 16,1 C 7,3 km/h (2 Bft) 96,68 %
18.05.2017 09:00 18,2 C 21,1 C 68 % 1013,3 hPa 0,0 l/m 4,9 km/h (1 Bft) O-NO 1,02 h 0,254 mm 2,7 UV-I 612 W/m 12,2 C 18,2 C 7,8 km/h (2 Bft) 96,06 %
18.05.2017 10:00 20,1 C 21,2 C 63 % 1013,2 hPa 0,0 l/m 7,4 km/h (2 Bft) O-NO 0,98 h 0,355 mm 4,1 UV-I 742 W/m 12,9 C 19,7 C 11,7 km/h (2 Bft) 97,07 %
18.05.2017 11:00 21,8 C 21,7 C 60 % 1012,9 hPa 0,0 l/m 6,7 km/h (2 Bft) O-NO 1,00 h 0,458 mm 5,3 UV-I 833 W/m 13,7 C 21,5 C 11,0 km/h (2 Bft) 98,48 %
18.05.2017 12:00 23,5 C 22,0 C 56 % 1012,4 hPa 0,0 l/m 7,5 km/h (2 Bft) O-NO 1,00 h 0,533 mm 6,1 UV-I 881 W/m 14,3 C 23,1 C 12,4 km/h (3 Bft) 96,11 %
18.05.2017 13:00 24,9 C 22,2 C 51 % 1012,1 hPa 0,0 l/m 5,4 km/h (1 Bft) O-NO 1,00 h 0,584 mm 6,1 UV-I 880 W/m 14,2 C 24,9 C 8,8 km/h (2 Bft) 96,59 %
18.05.2017 14:00 25,8 C 22,8 C 51 % 1011,5 hPa 0,0 l/m 3,6 km/h (1 Bft) N-NO 1,00 h 0,584 mm 5,4 UV-I 828 W/m 14,9 C 25,8 C 6,7 km/h (2 Bft) 96,10 %
18.05.2017 15:00 26,5 C 23,0 C 50 % 1011,0 hPa 0,0 l/m 3,5 km/h (1 Bft) N-NO 1,00 h 0,559 mm 4,1 UV-I 727 W/m 15,0 C 26,5 C 7,0 km/h (2 Bft) 97,45 %
18.05.2017 16:00 26,9 C 23,3 C 47 % 1010,4 hPa 0,0 l/m 4,3 km/h (1 Bft) NO 1,00 h 0,508 mm 2,6 UV-I 587 W/m 14,4 C 26,9 C 7,3 km/h (2 Bft) 94,93 %
18.05.2017 17:00 27,1 C 23,3 C 44 % 1010,0 hPa 0,0 l/m 5,5 km/h (1 Bft) O-NO 1,00 h 0,407 mm 1,5 UV-I 424 W/m 13,9 C 27,0 C 9,1 km/h (2 Bft) 97,01 %
18.05.2017 18:00 26,6 C 23,3 C 46 % 1009,4 hPa 0,0 l/m 7,3 km/h (2 Bft) O-NO 1,00 h 0,330 mm 0,7 UV-I 253 W/m 13,9 C 26,4 C 11,7 km/h (2 Bft) 97,49 %
18.05.2017 19:00 25,3 C 23,3 C 50 % 1009,2 hPa 0,0 l/m 5,9 km/h (2 Bft) NO 1,00 h 0,228 mm 0,0 UV-I 105 W/m 14,1 C 25,2 C 8,6 km/h (2 Bft) 95,10 %
18.05.2017 20:00 23,0 C 23,3 C 56 % 1008,9 hPa 0,0 l/m 3,2 km/h (1 Bft) NO 0,47 h 0,127 mm 0,0 UV-I 18 W/m 13,9 C 23,0 C 5,1 km/h (1 Bft) 96,76 %
18.05.2017 21:00 22,0 C 23,3 C 58 % 1008,7 hPa 0,0 l/m 10,8 km/h (2 Bft) O-NO 0,00 h 0,051 mm 0,0 UV-I 0 W/m 13,5 C 20,7 C 15,6 km/h (3 Bft) 96,73 %
18.05.2017 22:00 20,6 C 23,3 C 63 % 1008,5 hPa 0,0 l/m 8,9 km/h (2 Bft) O-NO 0,00 h 0,076 mm 0,0 UV-I 0 W/m 13,3 C 19,7 C 13,7 km/h (3 Bft) 97,34 %
18.05.2017 23:00 19,4 C 22,9 C 67 % 1008,3 hPa 0,0 l/m 7,7 km/h (2 Bft) O-NO 0,00 h 0,051 mm 0,0 UV-I 0 W/m 13,1 C 18,7 C 11,0 km/h (2 Bft) 95,11 %
19.05.2017 00:00 18,0 C 22,8 C 72 % 1008,1 hPa 0,0 l/m 7,2 km/h (2 Bft) O-NO 0,00 h 0,000 mm 0,0 UV-I 0 W/m 12,9 C 17,5 C 9,8 km/h (2 Bft) 97,12 %
19.05.2017 01:00 17,2 C 22,8 C 74 % 1007,7 hPa 0,0 l/m 6,1 km/h (2 Bft) O-NO 0,00 h 0,025 mm 0,0 UV-I 0 W/m 12,6 C 17,0 C 8,4 km/h (2 Bft) 97,52 %
19.05.2017 02:00 16,1 C 22,8 C 77 % 1007,4 hPa 0,0 l/m 3,4 km/h (1 Bft) O-NO 0,00 h 0,026 mm 0,0 UV-I 0 W/m 12,1 C 16,1 C 5,2 km/h (1 Bft) 98,03 %
19.05.2017 03:00 14,7 C 22,5 C 82 % 1007,1 hPa 0,0 l/m 2,1 km/h (1 Bft) O-NO 0,00 h 0,025 mm 0,0 UV-I 0 W/m 11,6 C 14,7 C 3,4 km/h (1 Bft) 95,52 %
19.05.2017 04:00 13,5 C 22,2 C 86 % 1006,9 hPa 0,0 l/m 1,3 km/h (1 Bft) O-NO 0,00 h 0,000 mm 0,0 UV-I 0 W/m 11,1 C 13,5 C 2,6 km/h (1 Bft) 97,66 %
19.05.2017 05:00 12,4 C 22,2 C 90 % 1006,8 hPa 0,0 l/m 0,6 km/h (0 Bft) S-SO 0,47 h 0,000 mm 0,0 UV-I 24 W/m 10,7 C 12,4 C 1,4 km/h (1 Bft) 97,54 %
19.05.2017 06:00 13,3 C 22,2 C 88 % 1006,9 hPa 0,0 l/m 1,5 km/h (1 Bft) O-NO 0,77 h 0,026 mm 0,0 UV-I 114 W/m 11,2 C 13,3 C 3,4 km/h (1 Bft) 95,19 %
19.05.2017 07:00 15,9 C 22,2 C 76 % 1007,0 hPa 0,0 l/m 6,1 km/h (2 Bft) O-NO 1,02 h 0,050 mm 0,6 UV-I 283 W/m 11,7 C 15,5 C 9,5 km/h (2 Bft) 97,03 %
19.05.2017 08:00 17,5 C 22,2 C 73 % 1007,0 hPa 0,0 l/m 6,8 km/h (2 Bft) O-NO 0,98 h 0,178 mm 1,4 UV-I 464 W/m 12,6 C 17,1 C 10,3 km/h (2 Bft) 96,34 %
19.05.2017 09:00 19,5 C 22,3 C 69 % 1006,5 hPa 0,0 l/m 6,6 km/h (2 Bft) O-NO 1,00 h 0,280 mm 2,6 UV-I 623 W/m 13,7 C 19,2 C 10,4 km/h (2 Bft) 95,88 %
19.05.2017 10:00 21,3 C 22,8 C 63 % 1006,3 hPa 0,0 l/m 7,4 km/h (2 Bft) O-NO 1,00 h 0,381 mm 4,0 UV-I 756 W/m 14,0 C 20,9 C 12,7 km/h (3 Bft) 96,79 %
19.05.2017 11:00 23,4 C 22,8 C 56 % 1005,9 hPa 0,0 l/m 8,6 km/h (2 Bft) O-NO 1,00 h 0,482 mm 5,2 UV-I 855 W/m 14,1 C 22,7 C 13,6 km/h (3 Bft) 96,83 %
19.05.2017 12:00 24,8 C 23,1 C 50 % 1005,4 hPa 0,0 l/m 10,8 km/h (2 Bft) O-NO 1,00 h 0,584 mm 5,9 UV-I 905 W/m 13,8 C 23,8 C 16,6 km/h (3 Bft) 95,94 %
19.05.2017 13:00 26,1 C 23,3 C 44 % 1004,9 hPa 0,0 l/m 9,8 km/h (2 Bft) NO 1,00 h 0,635 mm 5,9 UV-I 902 W/m 12,9 C 25,4 C 16,2 km/h (3 Bft) 94,74 %
19.05.2017 14:00 26,7 C 23,9 C 41 % 1004,7 hPa 0,0 l/m 9,0 km/h (2 Bft) NO 1,00 h 0,661 mm 5,2 UV-I 842 W/m 12,4 C 26,2 C 14,6 km/h (3 Bft) 96,92 %
19.05.2017 15:00 27,0 C 23,9 C 40 % 1004,3 hPa 0,0 l/m 7,9 km/h (2 Bft) N-NO 1,00 h 0,635 mm 4,0 UV-I 738 W/m 12,3 C 26,7 C 14,1 km/h (3 Bft) 97,13 %
19.05.2017 16:00 27,3 C 24,4 C 38 % 1003,7 hPa 0,0 l/m 10,0 km/h (2 Bft) NO 1,00 h 0,559 mm 2,6 UV-I 599 W/m 11,7 C 26,7 C 16,0 km/h (3 Bft) 96,72 %
19.05.2017 17:00 27,6 C 24,4 C 39 % 1003,3 hPa 0,0 l/m 8,3 km/h (2 Bft) NO 1,00 h 0,482 mm 1,4 UV-I 430 W/m 12,3 C 27,3 C 13,5 km/h (3 Bft) 95,89 %
19.05.2017 18:00 27,3 C 24,4 C 40 % 1003,2 hPa 0,0 l/m 8,4 km/h (2 Bft) NO 1,00 h 0,356 mm 0,7 UV-I 254 W/m 12,5 C 26,9 C 13,8 km/h (3 Bft) 97,22 %
19.05.2017 19:00 25,1 C 24,4 C 48 % 1004,7 hPa 0,0 l/m 12,5 km/h (3 Bft) W-SW 0,33 h 0,254 mm 0,0 UV-I 80 W/m 13,1 C 23,6 C 21,2 km/h (4 Bft) 96,69 %
19.05.2017 20:00 16,6 C 24,1 C 69 % 1009,7 hPa 0,0 l/m 34,7 km/h (5 Bft) W-SW 0,00 h 0,152 mm 0,0 UV-I 11 W/m 11,0 C 9,4 C 54,8 km/h (7 Bft) 96,10 %
19.05.2017 21:00 14,4 C 23,9 C 71 % 1012,9 hPa 0,0 l/m 27,5 km/h (4 Bft) W 0,00 h 0,127 mm 0,0 UV-I 0 W/m 9,3 C 7,4 C 45,3 km/h (6 Bft) 96,72 %
19.05.2017 22:00 13,4 C 23,4 C 76 % 1014,5 hPa 0,0 l/m 24,4 km/h (4 Bft) W 0,00 h 0,102 mm 0,0 UV-I 0 W/m 9,3 C 6,7 C 36,6 km/h (5 Bft) 98,68 %
19.05.2017 23:00 12,5 C 23,3 C 79 % 1015,4 hPa 0,0 l/m 21,2 km/h (4 Bft) SW 0,00 h 0,076 mm 0,0 UV-I 0 W/m 9,0 C 6,2 C 32,6 km/h (5 Bft) 96,46 %
20.05.2017 00:00 11,7 C 23,0 C 84 % 1016,1 hPa 0,0 l/m 19,4 km/h (3 Bft) W-SW 0,00 h 0,000 mm 0,0 UV-I 0 W/m 9,1 C 5,7 C 30,2 km/h (5 Bft) 94,20 %
20.05.2017 01:00 11,6 C 22,8 C 81 % 1016,6 hPa 0,0 l/m 17,7 km/h (3 Bft) W-SW 0,00 h 0,025 mm 0,0 UV-I 0 W/m 8,4 C 6,1 C 26,4 km/h (4 Bft) 97,16 %
20.05.2017 02:00 11,6 C 22,8 C 78 % 1016,6 hPa 0,0 l/m 14,9 km/h (3 Bft) W-SW 0,00 h 0,051 mm 0,0 UV-I 0 W/m 7,8 C 7,1 C 22,7 km/h (4 Bft) 98,22 %
20.05.2017 03:00 11,2 C 22,4 C 76 % 1016,9 hPa 0,0 l/m 15,4 km/h (3 Bft) W-SW 0,00 h 0,051 mm 0,0 UV-I 0 W/m 7,2 C 6,4 C 23,4 km/h (4 Bft) 95,41 %
20.05.2017 04:00 10,9 C 22,2 C 78 % 1017,1 hPa 0,0 l/m 11,9 km/h (2 Bft) W-SW 0,00 h 0,051 mm 0,0 UV-I 0 W/m 7,3 C 7,7 C 17,7 km/h (3 Bft) 97,62 %
20.05.2017 05:00 10,6 C 22,2 C 80 % 1017,4 hPa 0,0 l/m 9,9 km/h (2 Bft) W-SW 0,03 h 0,025 mm 0,0 UV-I 11 W/m 7,3 C 8,3 C 16,6 km/h (3 Bft) 96,87 %
20.05.2017 06:00 10,0 C 21,8 C 81 % 1018,1 hPa 0,0 l/m 11,5 km/h (2 Bft) W-SW 0,00 h 0,026 mm 0,0 UV-I 55 W/m 6,9 C 6,9 C 17,4 km/h (3 Bft) 97,94 %
20.05.2017 07:00 10,9 C 21,7 C 76 % 1018,7 hPa 0,0 l/m 13,0 km/h (3 Bft) SW 0,70 h 0,050 mm 0,5 UV-I 214 W/m 6,9 C 7,2 C 20,9 km/h (4 Bft) 94,59 %
20.05.2017 08:00 11,4 C 21,7 C 74 % 1019,2 hPa 0,0 l/m 9,9 km/h (2 Bft) W-SW 0,67 h 0,127 mm 0,9 UV-I 275 W/m 6,9 C 9,3 C 17,4 km/h (3 Bft) 98,03 %
20.05.2017 09:00 12,1 C 21,7 C 72 % 1019,5 hPa 0,0 l/m 9,7 km/h (2 Bft) W-SW 0,90 h 0,153 mm 1,6 UV-I 356 W/m 7,1 C 10,1 C 16,4 km/h (3 Bft) 95,92 %
20.05.2017 10:00 12,8 C 21,7 C 69 % 1019,6 hPa 0,0 l/m 8,3 km/h (2 Bft) W-SW 0,63 h 0,203 mm 2,2 UV-I 419 W/m 7,4 C 11,5 C 14,9 km/h (3 Bft) 95,62 %
20.05.2017 11:00 13,6 C 21,7 C 66 % 1019,8 hPa 0,0 l/m 9,8 km/h (2 Bft) W-SW 0,33 h 0,229 mm 2,7 UV-I 455 W/m 7,3 C 11,7 C 16,7 km/h (3 Bft) 94,83 %
20.05.2017 12:00 14,5 C 21,7 C 62 % 1019,7 hPa 0,0 l/m 13,8 km/h (3 Bft) W-SW 1,00 h 0,279 mm 3,8 UV-I 627 W/m 7,2 C 11,2 C 22,3 km/h (4 Bft) 96,49 %
20.05.2017 13:00 15,3 C 21,7 C 59 % 1019,5 hPa 0,0 l/m 13,1 km/h (3 Bft) W-SW 0,97 h 0,406 mm 3,9 UV-I 628 W/m 7,3 C 12,3 C 21,3 km/h (4 Bft) 97,78 %
20.05.2017 14:00 15,9 C 21,7 C 57 % 1019,4 hPa 0,0 l/m 13,1 km/h (3 Bft) W-SW 1,00 h 0,407 mm 3,8 UV-I 614 W/m 7,5 C 13,0 C 21,2 km/h (4 Bft) 96,24 %
20.05.2017 15:00 16,2 C 22,0 C 57 % 1019,4 hPa 0,0 l/m 14,7 km/h (3 Bft) W-SW 0,73 h 0,432 mm 2,7 UV-I 467 W/m 7,6 C 12,9 C 23,4 km/h (4 Bft) 95,76 %
20.05.2017 16:00 16,1 C 22,2 C 56 % 1019,6 hPa 0,0 l/m 14,6 km/h (3 Bft) W 0,20 h 0,355 mm 1,5 UV-I 304 W/m 7,4 C 12,8 C 23,1 km/h (4 Bft) 94,64 %
20.05.2017 17:00 16,0 C 22,2 C 55 % 1019,8 hPa 0,0 l/m 11,4 km/h (2 Bft) W-SW 0,00 h 0,254 mm 0,7 UV-I 194 W/m 7,0 C 13,7 C 18,2 km/h (3 Bft) 96,41 %
20.05.2017 18:00 16,2 C 22,2 C 54 % 1019,8 hPa 0,0 l/m 11,7 km/h (2 Bft) W-SW 0,10 h 0,178 mm 0,5 UV-I 151 W/m 6,9 C 13,8 C 18,1 km/h (3 Bft) 96,37 %
20.05.2017 19:00 15,8 C 22,2 C 58 % 1020,2 hPa 0,0 l/m 10,5 km/h (2 Bft) W-SW 0,00 h 0,152 mm 0,0 UV-I 50 W/m 7,4 C 13,8 C 16,3 km/h (3 Bft) 96,00 %
20.05.2017 20:00 15,2 C 21,7 C 61 % 1020,9 hPa 0,0 l/m 8,2 km/h (2 Bft) W-SW 0,00 h 0,077 mm 0,0 UV-I 12 W/m 7,8 C 14,2 C 12,6 km/h (3 Bft) 96,17 %
20.05.2017 21:00 14,4 C 21,7 C 68 % 1021,8 hPa 0,0 l/m 8,3 km/h (2 Bft) SW 0,00 h 0,051 mm 0,0 UV-I 0 W/m 8,5 C 13,3 C 12,4 km/h (3 Bft) 98,12 %
20.05.2017 22:00 14,3 C 21,7 C 66 % 1022,2 hPa 0,0 l/m 8,7 km/h (2 Bft) SW 0,00 h 0,050 mm 0,0 UV-I 0 W/m 8,1 C 13,0 C 13,3 km/h (3 Bft) 96,09 %
20.05.2017 23:00 13,9 C 21,4 C 69 % 1022,3 hPa 0,0 l/m 7,7 km/h (2 Bft) W-SW 0,00 h 0,051 mm 0,0 UV-I 0 W/m 8,2 C 13,2 C 12,0 km/h (2 Bft) 95,78 %
21.05.2017 00:00 13,3 C 21,1 C 75 % 1023,0 hPa 0,0 l/m 4,3 km/h (1 Bft) S-SW 0,00 h 0,000 mm 0,0 UV-I 0 W/m 9,0 C 12,9 C 6,9 km/h (2 Bft) 96,50 %
21.05.2017 01:00 12,8 C 21,1 C 81 % 1023,1 hPa 0,0 l/m 3,2 km/h (1 Bft) SW 0,00 h 0,025 mm 0,0 UV-I 0 W/m 9,5 C 12,7 C 5,1 km/h (1 Bft) 97,52 %
21.05.2017 02:00 12,8 C 21,1 C 78 % 1022,9 hPa 0,0 l/m 7,4 km/h (2 Bft) W-SW 0,00 h 0,026 mm 0,0 UV-I 0 W/m 8,9 C 12,1 C 12,0 km/h (2 Bft) 95,44 %
21.05.2017 03:00 12,7 C 21,1 C 77 % 1022,9 hPa 0,0 l/m 7,8 km/h (2 Bft) SW 0,00 h 0,025 mm 0,0 UV-I 0 W/m 8,7 C 11,9 C 12,0 km/h (2 Bft) 96,29 %
21.05.2017 04:00 12,6 C 20,7 C 77 % 1023,0 hPa 0,0 l/m 7,9 km/h (2 Bft) SW 0,00 h 0,026 mm 0,0 UV-I 0 W/m 8,7 C 11,6 C 12,1 km/h (2 Bft) 96,48 %
21.05.2017 05:00 12,4 C 20,6 C 78 % 1023,2 hPa 0,0 l/m 9,3 km/h (2 Bft) W-SW 0,00 h 0,025 mm 0,0 UV-I 8 W/m 8,8 C 10,7 C 14,1 km/h (3 Bft) 97,94 %
21.05.2017 06:00 12,4 C 20,6 C 79 % 1023,7 hPa 0,0 l/m 6,9 km/h (2 Bft) SW 0,00 h 0,025 mm 0,0 UV-I 25 W/m 8,9 C 12,0 C 10,4 km/h (2 Bft) 95,33 %
21.05.2017 07:00 12,6 C 20,6 C 80 % 1024,4 hPa 0,0 l/m 6,8 km/h (2 Bft) SW 0,00 h 0,026 mm 0,0 UV-I 33 W/m 9,1 C 12,1 C 10,4 km/h (2 Bft) 96,67 %
21.05.2017 08:00 12,6 C 20,6 C 83 % 1025,0 hPa 0,0 l/m 2,5 km/h (1 Bft) S-SW 0,00 h 0,025 mm 0,5 UV-I 84 W/m 9,8 C 12,6 C 5,0 km/h (1 Bft) 96,16 %
21.05.2017 09:00 13,4 C 20,6 C 81 % 1025,2 hPa 0,0 l/m 5,7 km/h (1 Bft) S-SW 0,00 h 0,051 mm 1,0 UV-I 218 W/m 10,2 C 13,2 C 9,3 km/h (2 Bft) 97,37 %
21.05.2017 10:00 14,3 C 20,6 C 75 % 1025,2 hPa 0,0 l/m 7,0 km/h (2 Bft) W-SW 0,00 h 0,127 mm 1,5 UV-I 283 W/m 9,9 C 13,7 C 11,7 km/h (2 Bft) 94,18 %
21.05.2017 11:00 14,9 C 20,6 C 71 % 1025,2 hPa 0,0 l/m 5,8 km/h (2 Bft) W-SW 0,00 h 0,178 mm 1,7 UV-I 271 W/m 9,7 C 14,8 C 9,9 km/h (2 Bft) 95,40 %
21.05.2017 12:00 15,4 C 20,6 C 67 % 1025,2 hPa 0,0 l/m 5,5 km/h (1 Bft) SW 0,00 h 0,152 mm 2,2 UV-I 348 W/m 9,3 C 15,3 C 9,6 km/h (2 Bft) 96,27 %
21.05.2017 13:00 16,1 C 20,6 C 64 % 1025,0 hPa 0,0 l/m 4,3 km/h (1 Bft) SW 0,00 h 0,203 mm 2,4 UV-I 365 W/m 9,3 C 16,0 C 8,2 km/h (2 Bft) 96,67 %
21.05.2017 14:00 16,5 C 20,6 C 62 % 1024,7 hPa 0,0 l/m 4,0 km/h (1 Bft) W 0,30 h 0,204 mm 2,7 UV-I 423 W/m 9,3 C 16,4 C 7,5 km/h (2 Bft) 97,27 %
21.05.2017 15:00 17,2 C 20,6 C 60 % 1024,2 hPa 0,0 l/m 3,8 km/h (1 Bft) SW 0,93 h 0,254 mm 2,8 UV-I 507 W/m 9,3 C 17,1 C 8,0 km/h (2 Bft) 95,31 %
21.05.2017 16:00 17,5 C 20,9 C 59 % 1023,7 hPa 0,0 l/m 1,8 km/h (1 Bft) W-SW 0,47 h 0,279 mm 1,7 UV-I 391 W/m 9,4 C 17,4 C 4,8 km/h (1 Bft) 97,62 %
21.05.2017 17:00 17,7 C 21,1 C 57 % 1023,1 hPa 0,0 l/m 3,0 km/h (1 Bft) S-SW 0,70 h 0,229 mm 1,2 UV-I 340 W/m 8,9 C 17,7 C 6,1 km/h (2 Bft) 97,72 %
21.05.2017 18:00 17,8 C 21,1 C 55 % 1022,5 hPa 0,0 l/m 1,7 km/h (1 Bft) S-SW 1,00 h 0,203 mm 0,7 UV-I 257 W/m 8,7 C 17,8 C 4,0 km/h (1 Bft) 98,52 %
21.05.2017 19:00 17,2 C 21,1 C 60 % 1022,1 hPa 0,0 l/m 1,7 km/h (1 Bft) O 0,87 h 0,152 mm 0,0 UV-I 107 W/m 9,3 C 17,2 C 3,5 km/h (1 Bft) 97,27 %
21.05.2017 20:00 14,9 C 21,0 C 71 % 1021,9 hPa 0,0 l/m 1,8 km/h (1 Bft) O 0,27 h 0,076 mm 0,0 UV-I 19 W/m 9,6 C 14,9 C 3,1 km/h (1 Bft) 94,86 %
21.05.2017 21:00 12,8 C 20,6 C 79 % 1021,9 hPa 0,0 l/m 1,2 km/h (1 Bft) O 0,00 h 0,026 mm 0,0 UV-I 0 W/m 9,3 C 12,8 C 2,8 km/h (1 Bft) 97,00 %
21.05.2017 22:00 11,8 C 20,6 C 83 % 1021,9 hPa 0,0 l/m 1,5 km/h (1 Bft) O-SO 0,00 h 0,000 mm 0,0 UV-I 0 W/m 9,0 C 11,8 C 3,7 km/h (1 Bft) 96,62 %
21.05.2017 23:00 11,0 C 20,6 C 85 % 1021,7 hPa 0,0 l/m 0,2 km/h (0 Bft) O-SO 0,00 h 0,000 mm 0,0 UV-I 0 W/m 8,6 C 11,0 C 0,7 km/h (0 Bft) 96,48 %
Min-Datum _ 20.05.17 15.05.17 19.05.17 19.05.17 - 15.05.17 - - - - - 20.05.17 20.05.17 15.05.17 20.05.17
_ Min-Zeit 06:16 03:40 16:52 17:54 - 18:08 - - - - - 17:06 00:56 18:08 00:04
Minimum _ 9,8 C 19,4 C 32 % 1003,0 hPa - 0,0 km/h (0 Bft) - - - - - 6,2 C 3,5 C 0,0 km/h (0 Bft) 9,09 %
Max-Datum _ 19.05.17 19.05.17 16.05.17 16.05.17 15.05.17 19.05.17 - 16.05.17 19.05.17 17.05.17 15.05.17 18.05.17 19.05.17 19.05.17 15.05.17
_ Max-Zeit 17:14 16:06 06:28 09:04 16:40 20:10 - 14:00 14:02 12:42 13:56 15:06 17:22 20:08 01:28
Maximum _ 28,0 C 24,4 C 94 % 1029,4 hPa 7,2 l/m 44,8 km/h
W-SW (6 Bft)
- 0,07 h 0,661 mm 6,3 UV-I 1038 W/m 16,5 C 27,9 C 72,4 km/h
W-SW (8 Bft)
100,00 %
Durchschnitt _ 16,7 C 21,5 C 70 % 1019,6 hPa #10,4 l/m 7,3 km/h (2 Bft) O-NO #72:58 h #31,065 mm 2,8 UV-I 395 W/m 10,8 C 15,6 C 11,7 km/h (2 Bft) 96,73 %